sensor_id;sensor_type;location;lat;lon;timestamp;P1;durP1;ratioP1;P2;durP2;ratioP2
11439;SDS011;5776;51.814;4.510;2023-05-23T00:01:46;24.08;;;8.80;;
11439;SDS011;5776;51.814;4.510;2023-05-23T00:04:12;26.20;;;8.73;;
11439;SDS011;5776;51.814;4.510;2023-05-23T00:06:42;20.73;;;8.10;;
11439;SDS011;5776;51.814;4.510;2023-05-23T00:09:14;26.13;;;9.20;;
11439;SDS011;5776;51.814;4.510;2023-05-23T00:11:40;26.90;;;9.00;;
11439;SDS011;5776;51.814;4.510;2023-05-23T00:14:11;17.20;;;8.02;;
11439;SDS011;5776;51.814;4.510;2023-05-23T00:16:39;21.42;;;8.07;;
11439;SDS011;5776;51.814;4.510;2023-05-23T00:19:09;21.58;;;7.93;;
11439;SDS011;5776;51.814;4.510;2023-05-23T00:21:39;32.78;;;8.95;;
11439;SDS011;5776;51.814;4.510;2023-05-23T00:24:06;16.50;;;6.45;;
11439;SDS011;5776;51.814;4.510;2023-05-23T00:26:33;19.85;;;6.90;;
11439;SDS011;5776;51.814;4.510;2023-05-23T00:29:00;18.77;;;7.70;;
11439;SDS011;5776;51.814;4.510;2023-05-23T00:31:25;20.88;;;7.45;;
11439;SDS011;5776;51.814;4.510;2023-05-23T00:33:51;19.15;;;7.80;;
11439;SDS011;5776;51.814;4.510;2023-05-23T00:36:17;20.80;;;8.25;;
11439;SDS011;5776;51.814;4.510;2023-05-23T00:38:43;17.65;;;6.90;;
11439;SDS011;5776;51.814;4.510;2023-05-23T00:41:10;18.00;;;6.55;;
11439;SDS011;5776;51.814;4.510;2023-05-23T00:43:36;12.02;;;5.63;;
11439;SDS011;5776;51.814;4.510;2023-05-23T00:46:04;16.20;;;6.25;;
11439;SDS011;5776;51.814;4.510;2023-05-23T00:48:30;13.00;;;6.10;;
11439;SDS011;5776;51.814;4.510;2023-05-23T00:50:56;18.52;;;6.80;;
11439;SDS011;5776;51.814;4.510;2023-05-23T00:53:23;14.45;;;6.30;;
11439;SDS011;5776;51.814;4.510;2023-05-23T00:55:49;14.13;;;6.22;;
11439;SDS011;5776;51.814;4.510;2023-05-23T00:58:15;16.77;;;6.20;;
11439;SDS011;5776;51.814;4.510;2023-05-23T01:00:42;9.55;;;4.88;;
11439;SDS011;5776;51.814;4.510;2023-05-23T01:03:11;10.15;;;4.65;;
11439;SDS011;5776;51.814;4.510;2023-05-23T01:05:43;9.10;;;4.97;;
11439;SDS011;5776;51.814;4.510;2023-05-23T01:08:09;10.95;;;4.55;;
11439;SDS011;5776;51.814;4.510;2023-05-23T01:10:34;9.23;;;4.50;;
11439;SDS011;5776;51.814;4.510;2023-05-23T01:18:37;8.13;;;4.35;;
11439;SDS011;5776;51.814;4.510;2023-05-23T01:21:15;11.90;;;4.10;;
11439;SDS011;5776;51.814;4.510;2023-05-23T01:23:56;7.63;;;3.72;;
11439;SDS011;5776;51.814;4.510;2023-05-23T01:26:44;11.00;;;4.67;;
11439;SDS011;5776;51.814;4.510;2023-05-23T01:29:34;8.73;;;3.67;;
11439;SDS011;5776;51.814;4.510;2023-05-23T01:32:06;9.77;;;4.22;;
11439;SDS011;5776;51.814;4.510;2023-05-23T01:34:35;10.00;;;4.90;;
11439;SDS011;5776;51.814;4.510;2023-05-23T01:37:07;8.85;;;4.28;;
11439;SDS011;5776;51.814;4.510;2023-05-23T01:39:35;12.52;;;4.47;;
11439;SDS011;5776;51.814;4.510;2023-05-23T01:42:02;10.90;;;4.45;;
11439;SDS011;5776;51.814;4.510;2023-05-23T01:44:29;15.63;;;4.85;;
11439;SDS011;5776;51.814;4.510;2023-05-23T01:46:56;14.25;;;5.47;;
11439;SDS011;5776;51.814;4.510;2023-05-23T01:49:21;15.60;;;5.68;;
11439;SDS011;5776;51.814;4.510;2023-05-23T01:51:48;14.80;;;5.93;;
11439;SDS011;5776;51.814;4.510;2023-05-23T01:54:15;15.98;;;5.18;;
11439;SDS011;5776;51.814;4.510;2023-05-23T01:56:44;12.43;;;5.03;;
11439;SDS011;5776;51.814;4.510;2023-05-23T01:59:10;17.20;;;5.93;;
11439;SDS011;5776;51.814;4.510;2023-05-23T02:01:36;15.80;;;5.30;;
11439;SDS011;5776;51.814;4.510;2023-05-23T02:04:04;14.85;;;5.20;;
11439;SDS011;5776;51.814;4.510;2023-05-23T02:06:30;16.40;;;5.25;;
11439;SDS011;5776;51.814;4.510;2023-05-23T02:08:56;16.90;;;5.55;;
11439;SDS011;5776;51.814;4.510;2023-05-23T02:11:21;22.45;;;5.93;;
11439;SDS011;5776;51.814;4.510;2023-05-23T02:13:47;13.77;;;5.22;;
11439;SDS011;5776;51.814;4.510;2023-05-23T02:16:13;15.93;;;5.75;;
11439;SDS011;5776;51.814;4.510;2023-05-23T02:18:40;18.10;;;5.18;;
11439;SDS011;5776;51.814;4.510;2023-05-23T02:21:06;18.05;;;5.20;;
11439;SDS011;5776;51.814;4.510;2023-05-23T02:23:32;16.20;;;5.10;;
11439;SDS011;5776;51.814;4.510;2023-05-23T02:25:58;16.77;;;5.30;;
11439;SDS011;5776;51.814;4.510;2023-05-23T02:28:23;17.73;;;5.35;;
11439;SDS011;5776;51.814;4.510;2023-05-23T02:30:49;16.23;;;5.25;;
11439;SDS011;5776;51.814;4.510;2023-05-23T02:33:15;13.15;;;5.00;;
11439;SDS011;5776;51.814;4.510;2023-05-23T02:35:41;16.35;;;5.80;;
11439;SDS011;5776;51.814;4.510;2023-05-23T02:38:07;23.33;;;5.65;;
11439;SDS011;5776;51.814;4.510;2023-05-23T02:40:33;15.27;;;4.85;;
11439;SDS011;5776;51.814;4.510;2023-05-23T02:42:59;14.52;;;5.28;;
11439;SDS011;5776;51.814;4.510;2023-05-23T02:45:25;17.50;;;4.95;;
11439;SDS011;5776;51.814;4.510;2023-05-23T02:47:51;15.20;;;5.60;;
11439;SDS011;5776;51.814;4.510;2023-05-23T02:50:16;23.38;;;5.90;;
11439;SDS011;5776;51.814;4.510;2023-05-23T02:52:42;21.25;;;5.85;;
11439;SDS011;5776;51.814;4.510;2023-05-23T02:55:08;20.25;;;5.75;;
11439;SDS011;5776;51.814;4.510;2023-05-23T02:57:34;16.92;;;5.18;;
11439;SDS011;5776;51.814;4.510;2023-05-23T03:00:01;15.63;;;4.88;;
11439;SDS011;5776;51.814;4.510;2023-05-23T03:02:27;17.02;;;5.57;;
11439;SDS011;5776;51.814;4.510;2023-05-23T03:04:52;18.95;;;6.18;;
11439;SDS011;5776;51.814;4.510;2023-05-23T03:07:20;20.25;;;6.38;;
11439;SDS011;5776;51.814;4.510;2023-05-23T03:09:46;19.20;;;5.53;;
11439;SDS011;5776;51.814;4.510;2023-05-23T03:12:12;21.55;;;4.78;;
11439;SDS011;5776;51.814;4.510;2023-05-23T03:14:38;18.83;;;4.70;;
11439;SDS011;5776;51.814;4.510;2023-05-23T03:17:04;16.00;;;5.22;;
11439;SDS011;5776;51.814;4.510;2023-05-23T03:19:30;17.25;;;5.40;;
11439;SDS011;5776;51.814;4.510;2023-05-23T03:21:56;12.38;;;4.75;;
11439;SDS011;5776;51.814;4.510;2023-05-23T03:24:22;19.15;;;4.85;;
11439;SDS011;5776;51.814;4.510;2023-05-23T03:26:48;15.48;;;5.05;;
11439;SDS011;5776;51.814;4.510;2023-05-23T03:29:13;14.93;;;5.15;;
11439;SDS011;5776;51.814;4.510;2023-05-23T03:31:39;19.05;;;4.53;;
11439;SDS011;5776;51.814;4.510;2023-05-23T03:34:05;13.93;;;4.50;;
11439;SDS011;5776;51.814;4.510;2023-05-23T03:36:31;14.40;;;3.92;;
11439;SDS011;5776;51.814;4.510;2023-05-23T03:39:00;10.80;;;3.40;;
11439;SDS011;5776;51.814;4.510;2023-05-23T03:41:26;13.20;;;3.80;;
11439;SDS011;5776;51.814;4.510;2023-05-23T03:43:52;15.77;;;4.18;;
11439;SDS011;5776;51.814;4.510;2023-05-23T03:46:17;15.00;;;4.00;;
11439;SDS011;5776;51.814;4.510;2023-05-23T03:48:43;14.98;;;4.03;;
11439;SDS011;5776;51.814;4.510;2023-05-23T03:51:09;13.40;;;4.03;;
11439;SDS011;5776;51.814;4.510;2023-05-23T03:53:38;16.90;;;3.67;;
11439;SDS011;5776;51.814;4.510;2023-05-23T03:56:04;13.25;;;3.67;;
11439;SDS011;5776;51.814;4.510;2023-05-23T03:58:30;10.05;;;3.00;;
11439;SDS011;5776;51.814;4.510;2023-05-23T04:00:56;13.77;;;3.70;;
11439;SDS011;5776;51.814;4.510;2023-05-23T04:03:22;10.00;;;3.27;;
11439;SDS011;5776;51.814;4.510;2023-05-23T04:05:48;10.95;;;3.45;;
11439;SDS011;5776;51.814;4.510;2023-05-23T04:08:14;8.35;;;2.63;;
11439;SDS011;5776;51.814;4.510;2023-05-23T04:10:40;14.23;;;3.20;;
11439;SDS011;5776;51.814;4.510;2023-05-23T04:13:06;6.97;;;2.73;;
11439;SDS011;5776;51.814;4.510;2023-05-23T04:15:32;13.15;;;3.65;;
11439;SDS011;5776;51.814;4.510;2023-05-23T04:17:58;7.07;;;2.60;;
11439;SDS011;5776;51.814;4.510;2023-05-23T04:20:24;10.97;;;3.37;;
11439;SDS011;5776;51.814;4.510;2023-05-23T04:22:50;6.43;;;2.97;;
11439;SDS011;5776;51.814;4.510;2023-05-23T04:25:16;9.97;;;2.73;;
11439;SDS011;5776;51.814;4.510;2023-05-23T04:27:44;10.67;;;2.70;;
11439;SDS011;5776;51.814;4.510;2023-05-23T04:30:11;10.77;;;3.10;;
11439;SDS011;5776;51.814;4.510;2023-05-23T04:32:38;8.17;;;3.17;;
11439;SDS011;5776;51.814;4.510;2023-05-23T04:35:04;11.18;;;2.97;;
11439;SDS011;5776;51.814;4.510;2023-05-23T04:37:31;15.45;;;3.72;;
11439;SDS011;5776;51.814;4.510;2023-05-23T04:39:57;10.60;;;3.30;;
11439;SDS011;5776;51.814;4.510;2023-05-23T04:42:26;11.40;;;3.37;;
11439;SDS011;5776;51.814;4.510;2023-05-23T04:44:53;9.83;;;3.10;;
11439;SDS011;5776;51.814;4.510;2023-05-23T04:47:22;10.30;;;2.30;;
11439;SDS011;5776;51.814;4.510;2023-05-23T04:49:49;10.32;;;2.92;;
11439;SDS011;5776;51.814;4.510;2023-05-23T04:52:18;6.63;;;2.75;;
11439;SDS011;5776;51.814;4.510;2023-05-23T04:54:44;11.38;;;4.10;;
11439;SDS011;5776;51.814;4.510;2023-05-23T04:57:11;17.00;;;4.40;;
11439;SDS011;5776;51.814;4.510;2023-05-23T04:59:37;12.33;;;4.17;;
11439;SDS011;5776;51.814;4.510;2023-05-23T05:02:03;11.63;;;3.92;;
11439;SDS011;5776;51.814;4.510;2023-05-23T05:04:30;15.70;;;4.53;;
11439;SDS011;5776;51.814;4.510;2023-05-23T05:06:56;15.95;;;4.72;;
11439;SDS011;5776;51.814;4.510;2023-05-23T05:09:22;16.38;;;4.35;;
11439;SDS011;5776;51.814;4.510;2023-05-23T05:11:48;13.50;;;4.75;;
11439;SDS011;5776;51.814;4.510;2023-05-23T05:14:15;12.57;;;4.77;;
11439;SDS011;5776;51.814;4.510;2023-05-23T05:16:41;16.10;;;4.60;;
11439;SDS011;5776;51.814;4.510;2023-05-23T05:19:07;11.43;;;4.10;;
11439;SDS011;5776;51.814;4.510;2023-05-23T05:21:32;10.93;;;4.33;;
11439;SDS011;5776;51.814;4.510;2023-05-23T05:23:58;11.17;;;4.13;;
11439;SDS011;5776;51.814;4.510;2023-05-23T05:26:24;12.70;;;3.93;;
11439;SDS011;5776;51.814;4.510;2023-05-23T05:28:51;14.85;;;4.55;;
11439;SDS011;5776;51.814;4.510;2023-05-23T05:31:17;12.32;;;5.03;;
11439;SDS011;5776;51.814;4.510;2023-05-23T05:33:44;13.27;;;4.50;;
11439;SDS011;5776;51.814;4.510;2023-05-23T05:36:10;11.30;;;4.90;;
11439;SDS011;5776;51.814;4.510;2023-05-23T05:38:36;11.80;;;4.70;;
11439;SDS011;5776;51.814;4.510;2023-05-23T05:41:02;16.40;;;5.30;;
11439;SDS011;5776;51.814;4.510;2023-05-23T05:43:29;21.20;;;5.50;;
11439;SDS011;5776;51.814;4.510;2023-05-23T05:45:55;15.03;;;4.77;;
11439;SDS011;5776;51.814;4.510;2023-05-23T05:48:21;18.50;;;5.40;;
11439;SDS011;5776;51.814;4.510;2023-05-23T05:50:47;10.87;;;4.47;;
11439;SDS011;5776;51.814;4.510;2023-05-23T05:53:13;16.27;;;5.53;;
11439;SDS011;5776;51.814;4.510;2023-05-23T05:55:39;14.87;;;5.20;;
11439;SDS011;5776;51.814;4.510;2023-05-23T05:58:05;11.10;;;4.80;;
11439;SDS011;5776;51.814;4.510;2023-05-23T06:00:31;13.43;;;4.80;;
11439;SDS011;5776;51.814;4.510;2023-05-23T06:02:57;8.98;;;3.97;;
11439;SDS011;5776;51.814;4.510;2023-05-23T06:05:23;11.37;;;4.40;;
11439;SDS011;5776;51.814;4.510;2023-05-23T06:07:49;11.97;;;4.63;;
11439;SDS011;5776;51.814;4.510;2023-05-23T06:10:15;12.27;;;4.03;;
11439;SDS011;5776;51.814;4.510;2023-05-23T06:12:41;13.80;;;4.10;;
11439;SDS011;5776;51.814;4.510;2023-05-23T06:15:08;11.47;;;4.13;;
11439;SDS011;5776;51.814;4.510;2023-05-23T06:17:34;9.30;;;3.83;;
11439;SDS011;5776;51.814;4.510;2023-05-23T06:20:00;16.47;;;4.63;;
11439;SDS011;5776;51.814;4.510;2023-05-23T06:22:25;13.63;;;4.17;;
11439;SDS011;5776;51.814;4.510;2023-05-23T06:24:51;12.17;;;4.43;;
11439;SDS011;5776;51.814;4.510;2023-05-23T06:27:17;11.97;;;4.23;;
11439;SDS011;5776;51.814;4.510;2023-05-23T06:29:43;11.33;;;4.43;;
11439;SDS011;5776;51.814;4.510;2023-05-23T06:32:09;10.83;;;4.03;;
11439;SDS011;5776;51.814;4.510;2023-05-23T06:34:35;10.37;;;4.00;;
11439;SDS011;5776;51.814;4.510;2023-05-23T06:37:01;8.40;;;3.30;;
11439;SDS011;5776;51.814;4.510;2023-05-23T06:39:27;14.47;;;3.50;;
11439;SDS011;5776;51.814;4.510;2023-05-23T06:41:53;9.00;;;3.50;;
11439;SDS011;5776;51.814;4.510;2023-05-23T06:44:19;12.33;;;3.30;;
11439;SDS011;5776;51.814;4.510;2023-05-23T06:46:45;8.40;;;2.93;;
11439;SDS011;5776;51.814;4.510;2023-05-23T06:49:11;7.40;;;2.70;;
11439;SDS011;5776;51.814;4.510;2023-05-23T06:51:38;6.57;;;2.37;;
11439;SDS011;5776;51.814;4.510;2023-05-23T06:54:04;8.10;;;2.37;;
11439;SDS011;5776;51.814;4.510;2023-05-23T06:56:30;4.93;;;1.80;;
11439;SDS011;5776;51.814;4.510;2023-05-23T06:58:57;8.93;;;1.90;;
11439;SDS011;5776;51.814;4.510;2023-05-23T07:01:22;6.30;;;1.93;;
11439;SDS011;5776;51.814;4.510;2023-05-23T07:03:48;6.90;;;2.80;;
11439;SDS011;5776;51.814;4.510;2023-05-23T07:06:14;5.47;;;1.90;;
11439;SDS011;5776;51.814;4.510;2023-05-23T07:08:40;7.90;;;1.67;;
11439;SDS011;5776;51.814;4.510;2023-05-23T07:11:06;8.37;;;2.10;;
11439;SDS011;5776;51.814;4.510;2023-05-23T07:13:32;7.10;;;2.17;;
11439;SDS011;5776;51.814;4.510;2023-05-23T07:15:58;6.33;;;1.87;;
11439;SDS011;5776;51.814;4.510;2023-05-23T07:18:24;4.53;;;1.43;;
11439;SDS011;5776;51.814;4.510;2023-05-23T07:20:50;8.30;;;2.10;;
11439;SDS011;5776;51.814;4.510;2023-05-23T07:23:16;12.53;;;2.30;;
11439;SDS011;5776;51.814;4.510;2023-05-23T07:25:42;16.70;;;2.40;;
11439;SDS011;5776;51.814;4.510;2023-05-23T07:28:08;9.37;;;1.67;;
11439;SDS011;5776;51.814;4.510;2023-05-23T07:30:35;8.43;;;2.17;;
11439;SDS011;5776;51.814;4.510;2023-05-23T07:33:01;10.03;;;1.97;;
11439;SDS011;5776;51.814;4.510;2023-05-23T07:35:29;12.53;;;2.37;;
11439;SDS011;5776;51.814;4.510;2023-05-23T07:37:55;9.43;;;2.43;;
11439;SDS011;5776;51.814;4.510;2023-05-23T07:40:21;12.47;;;2.60;;
11439;SDS011;5776;51.814;4.510;2023-05-23T07:42:47;11.43;;;2.47;;
11439;SDS011;5776;51.814;4.510;2023-05-23T07:45:13;9.70;;;2.30;;
11439;SDS011;5776;51.814;4.510;2023-05-23T07:47:40;11.70;;;2.53;;
11439;SDS011;5776;51.814;4.510;2023-05-23T07:50:06;10.20;;;2.63;;
11439;SDS011;5776;51.814;4.510;2023-05-23T07:52:33;10.90;;;2.60;;
11439;SDS011;5776;51.814;4.510;2023-05-23T07:55:00;16.07;;;3.17;;
11439;SDS011;5776;51.814;4.510;2023-05-23T07:57:25;15.00;;;2.83;;
11439;SDS011;5776;51.814;4.510;2023-05-23T07:59:52;15.47;;;3.33;;
11439;SDS011;5776;51.814;4.510;2023-05-23T08:02:18;13.30;;;2.27;;
11439;SDS011;5776;51.814;4.510;2023-05-23T08:04:45;13.70;;;3.07;;
11439;SDS011;5776;51.814;4.510;2023-05-23T08:07:13;12.13;;;2.93;;
11439;SDS011;5776;51.814;4.510;2023-05-23T08:09:39;12.70;;;2.53;;
11439;SDS011;5776;51.814;4.510;2023-05-23T08:12:06;16.63;;;3.13;;
11439;SDS011;5776;51.814;4.510;2023-05-23T08:14:32;11.60;;;2.27;;
11439;SDS011;5776;51.814;4.510;2023-05-23T08:16:58;12.30;;;2.63;;
11439;SDS011;5776;51.814;4.510;2023-05-23T08:19:24;18.17;;;2.80;;
11439;SDS011;5776;51.814;4.510;2023-05-23T08:21:50;15.60;;;2.47;;
11439;SDS011;5776;51.814;4.510;2023-05-23T08:24:18;13.30;;;2.70;;
11439;SDS011;5776;51.814;4.510;2023-05-23T08:26:45;10.93;;;2.40;;
11439;SDS011;5776;51.814;4.510;2023-05-23T08:29:11;7.90;;;2.20;;
11439;SDS011;5776;51.814;4.510;2023-05-23T08:31:37;8.47;;;2.33;;
11439;SDS011;5776;51.814;4.510;2023-05-23T08:34:03;6.70;;;2.50;;
11439;SDS011;5776;51.814;4.510;2023-05-23T08:36:28;12.27;;;2.43;;
11439;SDS011;5776;51.814;4.510;2023-05-23T08:38:56;10.20;;;2.40;;
11439;SDS011;5776;51.814;4.510;2023-05-23T08:41:23;11.17;;;2.00;;
11439;SDS011;5776;51.814;4.510;2023-05-23T08:43:50;14.33;;;2.57;;
11439;SDS011;5776;51.814;4.510;2023-05-23T08:46:16;16.53;;;2.70;;
11439;SDS011;5776;51.814;4.510;2023-05-23T08:48:42;10.07;;;2.70;;
11439;SDS011;5776;51.814;4.510;2023-05-23T08:51:15;10.50;;;2.43;;
11439;SDS011;5776;51.814;4.510;2023-05-23T08:53:43;9.57;;;2.50;;
11439;SDS011;5776;51.814;4.510;2023-05-23T08:56:11;20.50;;;2.80;;
11439;SDS011;5776;51.814;4.510;2023-05-23T08:58:38;8.73;;;2.33;;
11439;SDS011;5776;51.814;4.510;2023-05-23T09:01:06;15.83;;;3.17;;
11439;SDS011;5776;51.814;4.510;2023-05-23T09:03:34;16.67;;;2.83;;
11439;SDS011;5776;51.814;4.510;2023-05-23T09:06:08;11.93;;;2.87;;
11439;SDS011;5776;51.814;4.510;2023-05-23T09:08:34;13.13;;;3.10;;
11439;SDS011;5776;51.814;4.510;2023-05-23T09:11:00;16.17;;;3.23;;
11439;SDS011;5776;51.814;4.510;2023-05-23T09:13:28;23.10;;;3.90;;
11439;SDS011;5776;51.814;4.510;2023-05-23T09:18:32;14.33;;;3.13;;
11439;SDS011;5776;51.814;4.510;2023-05-23T09:21:00;17.08;;;3.50;;
11439;SDS011;5776;51.814;4.510;2023-05-23T09:23:33;14.93;;;3.17;;
11439;SDS011;5776;51.814;4.510;2023-05-23T09:26:01;12.53;;;3.40;;
11439;SDS011;5776;51.814;4.510;2023-05-23T09:28:34;12.87;;;2.37;;
11439;SDS011;5776;51.814;4.510;2023-05-23T09:31:05;16.07;;;2.93;;
11439;SDS011;5776;51.814;4.510;2023-05-23T09:33:46;16.83;;;3.23;;
11439;SDS011;5776;51.814;4.510;2023-05-23T09:36:13;23.47;;;2.90;;
11439;SDS011;5776;51.814;4.510;2023-05-23T09:38:40;13.93;;;3.00;;
11439;SDS011;5776;51.814;4.510;2023-05-23T09:41:06;12.37;;;2.47;;
11439;SDS011;5776;51.814;4.510;2023-05-23T09:43:33;10.53;;;3.40;;
11439;SDS011;5776;51.814;4.510;2023-05-23T09:45:59;12.20;;;2.70;;
11439;SDS011;5776;51.814;4.510;2023-05-23T09:48:32;15.20;;;2.97;;
11439;SDS011;5776;51.814;4.510;2023-05-23T09:50:58;12.40;;;3.10;;
11439;SDS011;5776;51.814;4.510;2023-05-23T09:53:29;17.80;;;3.67;;
11439;SDS011;5776;51.814;4.510;2023-05-23T09:55:55;16.63;;;3.00;;
11439;SDS011;5776;51.814;4.510;2023-05-23T09:58:23;10.80;;;2.40;;
11439;SDS011;5776;51.814;4.510;2023-05-23T10:00:52;23.70;;;3.30;;
11439;SDS011;5776;51.814;4.510;2023-05-23T10:03:30;17.60;;;2.93;;
11439;SDS011;5776;51.814;4.510;2023-05-23T10:06:14;21.67;;;3.47;;
11439;SDS011;5776;51.814;4.510;2023-05-23T10:09:01;14.27;;;3.03;;
11439;SDS011;5776;51.814;4.510;2023-05-23T10:11:43;20.10;;;3.33;;
11439;SDS011;5776;51.814;4.510;2023-05-23T10:14:34;18.70;;;3.57;;
11439;SDS011;5776;51.814;4.510;2023-05-23T10:17:14;15.47;;;3.30;;
11439;SDS011;5776;51.814;4.510;2023-05-23T10:22:19;11.33;;;2.60;;
11439;SDS011;5776;51.814;4.510;2023-05-23T10:24:46;22.23;;;3.43;;
11439;SDS011;5776;51.814;4.510;2023-05-23T10:27:13;11.07;;;3.23;;
11439;SDS011;5776;51.814;4.510;2023-05-23T10:29:39;14.17;;;3.13;;
11439;SDS011;5776;51.814;4.510;2023-05-23T10:32:06;13.40;;;3.00;;
11439;SDS011;5776;51.814;4.510;2023-05-23T10:35:19;12.20;;;2.50;;
11439;SDS011;5776;51.814;4.510;2023-05-23T10:37:28;12.70;;;2.40;;
11439;SDS011;5776;51.814;4.510;2023-05-23T10:43:01;12.98;;;3.22;;
11439;SDS011;5776;51.814;4.510;2023-05-23T10:45:39;12.97;;;3.20;;
11439;SDS011;5776;51.814;4.510;2023-05-23T10:48:19;13.63;;;3.00;;
11439;SDS011;5776;51.814;4.510;2023-05-23T10:50:47;12.00;;;2.85;;
11439;SDS011;5776;51.814;4.510;2023-05-23T10:53:28;12.77;;;3.67;;
11439;SDS011;5776;51.814;4.510;2023-05-23T10:55:55;9.48;;;2.85;;
11439;SDS011;5776;51.814;4.510;2023-05-23T10:58:21;12.40;;;3.03;;
11439;SDS011;5776;51.814;4.510;2023-05-23T11:00:55;9.43;;;2.67;;
11439;SDS011;5776;51.814;4.510;2023-05-23T11:06:02;10.53;;;2.90;;
11439;SDS011;5776;51.814;4.510;2023-05-23T11:08:39;13.63;;;2.58;;
11439;SDS011;5776;51.814;4.510;2023-05-23T11:11:07;13.18;;;2.35;;
11439;SDS011;5776;51.814;4.510;2023-05-23T11:16:23;11.60;;;2.80;;
11439;SDS011;5776;51.814;4.510;2023-05-23T11:21:43;13.07;;;2.50;;
11439;SDS011;5776;51.814;4.510;2023-05-23T11:24:54;12.05;;;2.75;;
11439;SDS011;5776;51.814;4.510;2023-05-23T11:29:59;9.70;;;2.60;;
11439;SDS011;5776;51.814;4.510;2023-05-23T11:32:37;13.82;;;2.25;;
11439;SDS011;5776;51.814;4.510;2023-05-23T11:35:04;12.38;;;2.60;;
11439;SDS011;5776;51.814;4.510;2023-05-23T11:37:32;16.33;;;2.78;;
11439;SDS011;5776;51.814;4.510;2023-05-23T11:39:59;13.60;;;3.30;;
11439;SDS011;5776;51.814;4.510;2023-05-23T11:42:44;14.40;;;3.43;;
11439;SDS011;5776;51.814;4.510;2023-05-23T11:45:10;10.43;;;2.33;;
11439;SDS011;5776;51.814;4.510;2023-05-23T11:47:39;11.57;;;3.17;;
11439;SDS011;5776;51.814;4.510;2023-05-23T11:50:06;11.43;;;2.92;;
11439;SDS011;5776;51.814;4.510;2023-05-23T11:52:32;15.17;;;2.70;;
11439;SDS011;5776;51.814;4.510;2023-05-23T11:54:59;13.90;;;2.60;;
11439;SDS011;5776;51.814;4.510;2023-05-23T11:57:26;13.60;;;2.70;;
11439;SDS011;5776;51.814;4.510;2023-05-23T11:59:52;12.23;;;2.47;;
11439;SDS011;5776;51.814;4.510;2023-05-23T12:02:20;17.10;;;3.03;;
11439;SDS011;5776;51.814;4.510;2023-05-23T12:04:50;15.18;;;2.60;;
11439;SDS011;5776;51.814;4.510;2023-05-23T12:07:19;13.93;;;2.70;;
11439;SDS011;5776;51.814;4.510;2023-05-23T12:09:45;11.10;;;2.73;;
11439;SDS011;5776;51.814;4.510;2023-05-23T12:12:12;12.70;;;2.42;;
11439;SDS011;5776;51.814;4.510;2023-05-23T12:14:38;13.87;;;2.40;;
11439;SDS011;5776;51.814;4.510;2023-05-23T12:17:12;14.20;;;2.92;;
11439;SDS011;5776;51.814;4.510;2023-05-23T12:19:38;8.80;;;2.30;;
11439;SDS011;5776;51.814;4.510;2023-05-23T12:22:05;11.80;;;2.30;;
11439;SDS011;5776;51.814;4.510;2023-05-23T12:24:32;10.85;;;2.75;;
11439;SDS011;5776;51.814;4.510;2023-05-23T12:27:00;12.50;;;2.70;;
11439;SDS011;5776;51.814;4.510;2023-05-23T12:29:31;8.13;;;2.40;;
11439;SDS011;5776;51.814;4.510;2023-05-23T12:31:59;11.63;;;2.38;;
11439;SDS011;5776;51.814;4.510;2023-05-23T12:34:26;15.15;;;2.55;;
11439;SDS011;5776;51.814;4.510;2023-05-23T12:36:55;10.63;;;2.17;;
11439;SDS011;5776;51.814;4.510;2023-05-23T12:39:28;11.43;;;2.60;;
11439;SDS011;5776;51.814;4.510;2023-05-23T12:42:05;16.55;;;2.95;;
11439;SDS011;5776;51.814;4.510;2023-05-23T12:44:33;7.50;;;1.92;;
11439;SDS011;5776;51.814;4.510;2023-05-23T12:46:58;11.38;;;2.83;;
11439;SDS011;5776;51.814;4.510;2023-05-23T12:49:24;11.80;;;2.13;;
11439;SDS011;5776;51.814;4.510;2023-05-23T12:51:50;10.55;;;2.30;;
11439;SDS011;5776;51.814;4.510;2023-05-23T12:54:16;9.32;;;1.77;;
11439;SDS011;5776;51.814;4.510;2023-05-23T12:56:42;14.10;;;2.10;;
11439;SDS011;5776;51.814;4.510;2023-05-23T12:59:08;8.95;;;2.05;;
11439;SDS011;5776;51.814;4.510;2023-05-23T13:01:34;11.48;;;2.20;;
11439;SDS011;5776;51.814;4.510;2023-05-23T13:04:00;10.00;;;1.98;;
11439;SDS011;5776;51.814;4.510;2023-05-23T13:06:27;14.57;;;2.83;;
11439;SDS011;5776;51.814;4.510;2023-05-23T13:08:52;14.48;;;2.47;;
11439;SDS011;5776;51.814;4.510;2023-05-23T13:11:19;9.27;;;2.25;;
11439;SDS011;5776;51.814;4.510;2023-05-23T13:13:47;12.65;;;1.92;;
11439;SDS011;5776;51.814;4.510;2023-05-23T13:16:13;9.30;;;2.53;;
11439;SDS011;5776;51.814;4.510;2023-05-23T13:18:40;14.55;;;2.65;;
11439;SDS011;5776;51.814;4.510;2023-05-23T13:21:06;15.43;;;2.78;;
11439;SDS011;5776;51.814;4.510;2023-05-23T13:23:33;16.98;;;2.60;;
11439;SDS011;5776;51.814;4.510;2023-05-23T13:26:00;13.23;;;2.80;;
11439;SDS011;5776;51.814;4.510;2023-05-23T13:28:26;10.77;;;2.35;;
11439;SDS011;5776;51.814;4.510;2023-05-23T13:30:52;17.88;;;2.97;;
11439;SDS011;5776;51.814;4.510;2023-05-23T13:33:18;14.32;;;2.25;;
11439;SDS011;5776;51.814;4.510;2023-05-23T13:35:44;9.55;;;1.85;;
11439;SDS011;5776;51.814;4.510;2023-05-23T13:38:13;10.73;;;2.67;;
11439;SDS011;5776;51.814;4.510;2023-05-23T13:40:40;17.33;;;2.35;;
11439;SDS011;5776;51.814;4.510;2023-05-23T13:43:06;12.77;;;2.65;;
11439;SDS011;5776;51.814;4.510;2023-05-23T13:45:32;11.40;;;2.10;;
11439;SDS011;5776;51.814;4.510;2023-05-23T13:47:58;6.68;;;2.00;;
11439;SDS011;5776;51.814;4.510;2023-05-23T13:50:24;12.38;;;2.28;;
11439;SDS011;5776;51.814;4.510;2023-05-23T13:52:50;14.38;;;2.75;;
11439;SDS011;5776;51.814;4.510;2023-05-23T13:55:16;7.60;;;2.07;;
11439;SDS011;5776;51.814;4.510;2023-05-23T13:57:43;9.45;;;2.42;;
11439;SDS011;5776;51.814;4.510;2023-05-23T14:00:09;8.40;;;1.85;;
11439;SDS011;5776;51.814;4.510;2023-05-23T14:02:36;9.67;;;1.70;;
11439;SDS011;5776;51.814;4.510;2023-05-23T14:05:01;13.07;;;2.20;;
11439;SDS011;5776;51.814;4.510;2023-05-23T14:07:28;9.57;;;2.20;;
11439;SDS011;5776;51.814;4.510;2023-05-23T14:09:54;10.45;;;2.55;;
11439;SDS011;5776;51.814;4.510;2023-05-23T14:12:19;11.10;;;2.70;;
11439;SDS011;5776;51.814;4.510;2023-05-23T14:14:45;8.90;;;2.20;;
11439;SDS011;5776;51.814;4.510;2023-05-23T14:17:14;13.25;;;2.33;;
11439;SDS011;5776;51.814;4.510;2023-05-23T14:19:41;9.82;;;1.88;;
11439;SDS011;5776;51.814;4.510;2023-05-23T14:22:07;10.60;;;2.20;;
11439;SDS011;5776;51.814;4.510;2023-05-23T14:24:33;14.15;;;2.85;;
11439;SDS011;5776;51.814;4.510;2023-05-23T14:26:59;9.55;;;2.22;;
11439;SDS011;5776;51.814;4.510;2023-05-23T14:29:25;12.38;;;2.17;;
11439;SDS011;5776;51.814;4.510;2023-05-23T14:31:51;9.07;;;2.03;;
11439;SDS011;5776;51.814;4.510;2023-05-23T14:34:17;7.82;;;2.00;;
11439;SDS011;5776;51.814;4.510;2023-05-23T14:36:43;14.32;;;2.20;;
11439;SDS011;5776;51.814;4.510;2023-05-23T14:39:09;11.00;;;2.13;;
11439;SDS011;5776;51.814;4.510;2023-05-23T14:41:35;9.52;;;1.95;;
11439;SDS011;5776;51.814;4.510;2023-05-23T14:44:02;9.95;;;1.83;;
11439;SDS011;5776;51.814;4.510;2023-05-23T14:46:28;12.65;;;2.35;;
11439;SDS011;5776;51.814;4.510;2023-05-23T14:48:54;10.32;;;2.40;;
11439;SDS011;5776;51.814;4.510;2023-05-23T14:51:20;14.68;;;2.50;;
11439;SDS011;5776;51.814;4.510;2023-05-23T14:53:46;9.75;;;2.20;;
11439;SDS011;5776;51.814;4.510;2023-05-23T14:56:12;9.50;;;2.05;;
11439;SDS011;5776;51.814;4.510;2023-05-23T14:58:38;10.40;;;2.25;;
11439;SDS011;5776;51.814;4.510;2023-05-23T15:01:09;16.15;;;2.60;;
11439;SDS011;5776;51.814;4.510;2023-05-23T15:03:37;9.52;;;2.10;;
11439;SDS011;5776;51.814;4.510;2023-05-23T15:06:03;14.13;;;2.67;;
11439;SDS011;5776;51.814;4.510;2023-05-23T15:08:31;10.20;;;2.15;;
11439;SDS011;5776;51.814;4.510;2023-05-23T15:10:58;8.25;;;2.28;;
11439;SDS011;5776;51.814;4.510;2023-05-23T15:13:25;11.90;;;2.30;;
11439;SDS011;5776;51.814;4.510;2023-05-23T15:15:51;12.98;;;1.83;;
11439;SDS011;5776;51.814;4.510;2023-05-23T15:18:18;10.73;;;2.08;;